createdAt,value
2023-06-15T00:02:57.809Z,100401.13
2023-06-15T00:08:00.633Z,100388.47
2023-06-15T00:13:03.018Z,100407.41
2023-06-15T00:18:06.987Z,100404.59
2023-06-15T00:23:10.106Z,100432.53
2023-06-15T00:28:13.268Z,100420.59
2023-06-15T00:33:15.937Z,100406.41
2023-06-15T00:38:18.447Z,100405.75
2023-06-15T00:43:22.181Z,100430.63
2023-06-15T00:48:25.552Z,100416.69
2023-06-15T00:53:28.249Z,100423.88
2023-06-15T00:58:30.734Z,100406.19
2023-06-15T01:03:37.084Z,100414.91
2023-06-15T01:08:41.969Z,100400.72
2023-06-15T01:13:45.932Z,100425.47
2023-06-15T01:18:52.269Z,100425.06
2023-06-15T01:24:29.541Z,100428.44
2023-06-15T01:29:36.972Z,100397.13
2023-06-15T01:34:40.210Z,100415.81
2023-06-15T01:39:44.825Z,100425.53
2023-06-15T01:44:51.584Z,100425.22
2023-06-15T01:49:55.071Z,100424.44
2023-06-15T01:54:57.617Z,100427.16
2023-06-15T02:00:00.887Z,100427.31
2023-06-15T02:05:07.840Z,100391.00
2023-06-15T02:10:11.507Z,100471.88
2023-06-15T02:15:15.967Z,100464.47
2023-06-15T02:20:18.803Z,100486.28
2023-06-15T02:25:21.429Z,100486.28
2023-06-15T02:30:26.543Z,100486.72
2023-06-15T02:35:29.787Z,100475.22
2023-06-15T02:40:32.507Z,100475.03
2023-06-15T02:45:35.059Z,100462.69
2023-06-15T02:50:37.837Z,100461.91
2023-06-15T02:55:48.351Z,100456.53
2023-06-15T03:00:55.050Z,100443.81
2023-06-15T03:06:20.230Z,100476.00
2023-06-15T03:11:24.430Z,100458.75
2023-06-15T03:16:28.310Z,100476.16
2023-06-15T03:21:33.173Z,100468.88
2023-06-15T03:26:38.821Z,100471.34
2023-06-15T03:31:44.342Z,100442.41
2023-06-15T03:36:46.879Z,100482.47
2023-06-15T03:41:49.172Z,100471.78
2023-06-15T03:46:53.824Z,100483.69
2023-06-15T03:51:57.426Z,100493.88
2023-06-15T03:57:00.277Z,100498.66
2023-06-15T04:02:04.534Z,100485.97
2023-06-15T04:07:08.163Z,100489.22
2023-06-15T04:12:11.689Z,100481.72
2023-06-15T04:17:15.430Z,100488.88
2023-06-15T04:22:18.386Z,100475.81
2023-06-15T04:27:21.160Z,100463.19
2023-06-15T04:32:27.154Z,100486.78
2023-06-15T04:37:30.303Z,100477.16
2023-06-15T04:42:35.159Z,100485.50
2023-06-15T04:47:43.575Z,100464.50
2023-06-15T04:52:47.349Z,100487.53
2023-06-15T04:57:50.701Z,100506.16
2023-06-15T05:02:54.435Z,100495.56
2023-06-15T05:07:57.955Z,100490.66
2023-06-15T05:13:01.031Z,100491.41
2023-06-15T05:18:04.591Z,100495.72
2023-06-15T05:23:09.421Z,100484.25
2023-06-15T05:28:15.389Z,100475.34
2023-06-15T05:33:19.345Z,100495.28
2023-06-15T05:38:25.088Z,100486.00
2023-06-15T05:43:28.611Z,100492.97
2023-06-15T05:48:32.381Z,100485.44
2023-06-15T05:53:36.328Z,100488.47
2023-06-15T05:58:40.497Z,100514.00
2023-06-15T06:03:43.925Z,100501.25
2023-06-15T06:08:50.301Z,100503.06
2023-06-15T06:13:52.880Z,100491.69
2023-06-15T06:18:55.543Z,100491.03
2023-06-15T06:24:00.329Z,100497.94
2023-06-15T06:29:04.929Z,100470.16
2023-06-15T06:34:08.051Z,100499.88
2023-06-15T06:39:10.689Z,100490.13
2023-06-15T06:44:16.500Z,100497.66
2023-06-15T06:49:19.691Z,100482.94
2023-06-15T06:54:22.720Z,100499.72
2023-06-15T06:59:42.589Z,100485.28
2023-06-15T07:04:45.745Z,100482.59
2023-06-15T07:09:48.833Z,100482.69
2023-06-15T07:14:51.773Z,100493.16
2023-06-15T07:19:55.922Z,100493.97
2023-06-15T07:24:59.398Z,100478.03
2023-06-15T07:30:03.004Z,100494.66
2023-06-15T07:35:10.003Z,100487.09
2023-06-15T07:40:14.598Z,100478.28
2023-06-15T07:45:17.681Z,100482.16
2023-06-15T07:50:20.747Z,100469.75
2023-06-15T07:55:24.087Z,100480.91
2023-06-15T08:00:26.576Z,100485.00
2023-06-15T08:05:36.206Z,100474.84
2023-06-15T08:10:41.337Z,100467.34
2023-06-15T08:15:45.232Z,100455.09
2023-06-15T08:20:50.939Z,100474.34
2023-06-15T08:25:55.851Z,100480.31
2023-06-15T08:30:59.711Z,100476.97
2023-06-15T08:36:02.560Z,100468.47
2023-06-15T08:41:06.347Z,100478.50
2023-06-15T08:46:10.991Z,100471.00
2023-06-15T08:51:14.177Z,100423.84
2023-06-15T08:56:16.949Z,100478.44
2023-06-15T09:01:25.313Z,100471.53
2023-06-15T09:06:29.819Z,100484.69
2023-06-15T09:11:43.391Z,100445.22
2023-06-15T09:16:47.696Z,100465.34
2023-06-15T09:21:53.664Z,100446.66
2023-06-15T09:26:56.890Z,100450.84
2023-06-15T09:32:03.139Z,100439.94
2023-06-15T09:37:17.543Z,100451.22
2023-06-15T09:42:27.110Z,100447.31
2023-06-15T09:47:32.586Z,100455.59
2023-06-15T09:52:37.846Z,100451.59
2023-06-15T09:57:43.357Z,100452.25
2023-06-15T10:02:48.206Z,100429.25
2023-06-15T10:07:52.937Z,100385.94
2023-06-15T10:12:59.309Z,100427.22
2023-06-15T10:18:05.239Z,100434.47
2023-06-15T10:23:18.479Z,100429.25
2023-06-15T10:28:26.628Z,100423.44
2023-06-15T10:33:59.650Z,100423.97
2023-06-15T10:39:24.635Z,100428.13
2023-06-15T10:44:34.603Z,100432.81
2023-06-15T10:49:37.494Z,100417.09
2023-06-15T10:54:40.487Z,100388.28
2023-06-15T10:59:52.981Z,100400.75
2023-06-15T11:05:06.982Z,100407.63
2023-06-15T11:10:19.154Z,100389.84
2023-06-15T11:15:23.350Z,100369.63
2023-06-15T11:21:01.364Z,100351.38
2023-06-15T11:26:04.348Z,100352.16
2023-06-15T11:31:09.249Z,100345.38
2023-06-15T11:36:12.817Z,100310.13
2023-06-15T11:41:16.646Z,100294.75
2023-06-15T11:46:24.029Z,100283.91
2023-06-15T11:51:37.307Z,100250.66
2023-06-15T12:04:02.094Z,100286.22
2023-06-15T12:09:10.346Z,100271.72
2023-06-15T12:14:19.213Z,100280.31
2023-06-15T12:19:26.246Z,100290.44
2023-06-15T12:24:34.420Z,100281.38
2023-06-15T12:29:42.311Z,100306.31
2023-06-15T12:34:54.538Z,100308.72
2023-06-15T12:40:08.590Z,100295.06
2023-06-15T12:45:15.172Z,100300.03
2023-06-15T12:50:18.612Z,100288.03
2023-06-15T12:55:22.079Z,100287.84
2023-06-15T13:05:44.688Z,100290.25
2023-06-15T13:10:47.906Z,100256.88
2023-06-15T13:15:51.500Z,100287.38
2023-06-15T13:20:57.282Z,100287.06
2023-06-15T13:26:01.620Z,100300.00
2023-06-15T13:31:06.280Z,100264.09
2023-06-15T13:36:23.586Z,100255.50
2023-06-15T13:41:32.392Z,100266.88
2023-06-15T13:46:41.799Z,100246.66
2023-06-15T13:51:48.083Z,100234.22
2023-06-15T13:56:50.968Z,100270.06
2023-06-15T14:01:56.730Z,100269.56
2023-06-15T14:07:01.010Z,100265.41
2023-06-15T14:12:04.328Z,100245.09
2023-06-15T14:17:09.959Z,100243.56
2023-06-15T14:22:13.386Z,100263.28
2023-06-15T14:27:15.967Z,100247.84
2023-06-15T14:32:19.033Z,100262.50
2023-06-15T14:37:22.190Z,100221.38
2023-06-15T14:42:29.048Z,100260.94
2023-06-15T14:47:33.064Z,100238.97
2023-06-15T14:52:37.922Z,100273.56
2023-06-15T14:57:40.322Z,100282.44
2023-06-15T15:02:43.421Z,100282.25
2023-06-15T15:07:46.068Z,100271.78
2023-06-15T15:12:49.618Z,100283.81
2023-06-15T15:17:53.721Z,100286.22
2023-06-15T15:22:58.723Z,100289.59
2023-06-15T15:28:01.548Z,100289.31
2023-06-15T15:33:04.723Z,100285.34
2023-06-15T15:38:07.772Z,100273.25
2023-06-15T15:43:10.839Z,100274.97
2023-06-15T15:48:13.321Z,100246.19
2023-06-15T15:53:16.874Z,100263.41
2023-06-15T15:58:19.747Z,100259.09
2023-06-15T16:03:24.752Z,100273.47
2023-06-15T16:08:27.584Z,100261.38
2023-06-15T16:13:31.233Z,100268.59
2023-06-15T16:18:35.270Z,100271.34
2023-06-15T16:23:38.180Z,100283.56
2023-06-15T16:28:41.254Z,100277.47
2023-06-15T16:33:46.522Z,100229.94
2023-06-15T16:38:49.923Z,100295.53
2023-06-15T16:43:53.181Z,100294.75
2023-06-15T16:48:55.528Z,100293.53
2023-06-15T16:53:58.504Z,100279.84
2023-06-15T16:59:01.192Z,100290.38
2023-06-15T17:04:03.938Z,100294.50
2023-06-15T17:09:06.632Z,100311.34
2023-06-15T17:14:09.529Z,100311.81
2023-06-15T17:19:12.091Z,100304.47
2023-06-15T17:24:14.910Z,100294.38
2023-06-15T17:29:17.430Z,100306.84
2023-06-15T17:34:20.094Z,100315.59
2023-06-15T17:39:22.463Z,100296.00
2023-06-15T17:44:24.791Z,100309.63
2023-06-15T17:49:27.127Z,100303.75
2023-06-15T17:54:29.571Z,100316.13
2023-06-15T17:59:31.889Z,100314.53
2023-06-15T18:04:34.625Z,100307.84
2023-06-15T18:09:36.994Z,100332.69
2023-06-15T18:14:40.544Z,100335.97
2023-06-15T18:19:42.839Z,100319.47
2023-06-15T18:24:45.297Z,100315.97
2023-06-15T18:29:52.474Z,100323.09
2023-06-15T18:34:55.765Z,100337.59
2023-06-15T18:39:58.641Z,100331.34
2023-06-15T18:45:01.477Z,100326.69
2023-06-15T18:50:08.810Z,100296.78
2023-06-15T18:55:11.542Z,100324.00
2023-06-15T19:00:14.454Z,100329.88
2023-06-15T19:05:17.155Z,100332.69
2023-06-15T19:10:20.497Z,100342.63
2023-06-15T19:15:22.893Z,100331.03
2023-06-15T19:20:25.442Z,100322.09
2023-06-15T19:25:27.860Z,100339.38
2023-06-15T19:30:30.661Z,100333.50
2023-06-15T19:35:35.582Z,100298.66
2023-06-15T19:40:38.287Z,100297.78
2023-06-15T19:45:41.814Z,100293.22
2023-06-15T19:50:45.824Z,100298.38
2023-06-15T19:55:48.842Z,100287.41
2023-06-15T20:00:51.853Z,100294.56
2023-06-15T20:06:00.759Z,100285.06
2023-06-15T20:11:08.117Z,100282.56
2023-06-15T20:16:13.891Z,100296.78
2023-06-15T20:21:17.462Z,100291.75
2023-06-15T20:26:21.209Z,100297.47
2023-06-15T20:31:26.112Z,100305.16
2023-06-15T20:36:30.407Z,100298.00
2023-06-15T20:41:33.214Z,100298.97
2023-06-15T20:46:36.141Z,100301.53
2023-06-15T20:51:39.272Z,100289.13
2023-06-15T20:56:42.212Z,100293.91
2023-06-15T21:01:45.089Z,100280.69
2023-06-15T21:06:49.500Z,100285.78
2023-06-15T21:11:52.521Z,100286.44
2023-06-15T21:16:55.097Z,100290.13
2023-06-15T21:21:59.109Z,100285.19
2023-06-15T21:27:02.185Z,100291.75
2023-06-15T21:32:05.019Z,100289.03
2023-06-15T21:37:07.622Z,100293.66
2023-06-15T21:42:10.233Z,100257.94
2023-06-15T21:47:12.636Z,100271.97
2023-06-15T21:52:18.232Z,100264.63
2023-06-15T21:57:21.338Z,100253.78
2023-06-15T22:02:23.727Z,100257.13
2023-06-15T22:07:28.059Z,100289.34
2023-06-15T22:12:34.227Z,100283.13
2023-06-15T22:17:40.477Z,100285.84
2023-06-15T22:22:43.833Z,100269.06
2023-06-15T22:27:47.185Z,100284.06
2023-06-15T22:32:54.745Z,100279.75
2023-06-15T22:37:57.369Z,100291.91
2023-06-15T22:43:01.598Z,100254.69
2023-06-15T22:48:05.626Z,100275.44
2023-06-15T22:53:10.087Z,100280.06
2023-06-15T22:58:12.498Z,100250.09
2023-06-15T23:03:17.023Z,100280.09
2023-06-15T23:08:22.882Z,100274.03
2023-06-15T23:13:26.641Z,100259.19
2023-06-15T23:18:33.594Z,100255.84
2023-06-15T23:23:38.637Z,100267.97
2023-06-15T23:28:41.487Z,100274.22
2023-06-15T23:33:43.870Z,100263.03
2023-06-15T23:38:46.236Z,100292.22
2023-06-15T23:43:52.345Z,100286.31
2023-06-15T23:48:55.239Z,100277.53
2023-06-15T23:53:57.717Z,100227.97
2023-06-15T23:59:00.974Z,100227.19
